KMGJ/MGJ METAR and TAF weather

Enter ICAO airport designator
Station Type Date Time Source
KMGJ METAR 2019/08/22 04:44 UTC NOAA

KMGJ 220444Z AUTO 20003KT 1/2SM FG VV002 20/20 A2986 RMK AO2 T02000200


Station Type Date Time Source
KMGJ Decoded METAR 2019/08/22 04:44 UTC NOAA

Station name not available
Aug 22, 2019 - 12:44 AM EDT / 2019.08.22 0444 UTC
Wind: from the SSW (200 degrees) at 3 MPH (3 KT):0
Visibility: 1/2 mile(s):0
Sky conditions: obscured
Weather: fog
Temperature: 68.0 F (20.0 C)
Dew Point: 68.0 F (20.0 C)
Relative Humidity: 100%
Pressure (altimeter): 29.86 in. Hg (1011 hPa)
ob: KMGJ 220444Z AUTO 20003KT 1/2SM FG VV002 20/20 A2986 RMK AO2 T02000200
cycle: 4

Station Type Date Time Source
KMGJ TAF UTC NOAA

Error!

Example: see airport list